createdAt,value
2023-02-23T00:02:07.253Z,62.63
2023-02-23T00:06:11.496Z,63.27
2023-02-23T00:10:19.859Z,63.12
2023-02-23T00:14:25.204Z,63.18
2023-02-23T00:18:30.735Z,63.43
2023-02-23T00:22:34.214Z,63.47
2023-02-23T00:26:43.134Z,63.70
2023-02-23T00:30:47.142Z,64.11
2023-02-23T00:34:50.649Z,64.18
2023-02-23T00:38:55.449Z,64.33
2023-02-23T00:43:00.770Z,64.29
2023-02-23T00:47:04.517Z,64.76
2023-02-23T00:51:07.883Z,65.08
2023-02-23T00:55:13.168Z,65.00
2023-02-23T00:59:18.808Z,65.12
2023-02-23T01:03:22.247Z,64.95
2023-02-23T01:07:27.448Z,64.59
2023-02-23T01:11:31.574Z,64.32
2023-02-23T01:15:36.861Z,64.54
2023-02-23T01:19:40.262Z,64.76
2023-02-23T01:23:43.785Z,65.06
2023-02-23T01:27:47.475Z,65.31
2023-02-23T01:31:52.738Z,65.46
2023-02-23T01:36:00.379Z,65.76
2023-02-23T01:40:11.360Z,66.10
2023-02-23T01:44:52.243Z,65.09
2023-02-23T01:48:58.000Z,66.53
2023-02-23T01:53:01.529Z,66.58
2023-02-23T01:57:06.860Z,66.59
2023-02-23T02:01:10.828Z,66.94
2023-02-23T02:05:16.877Z,67.07
2023-02-23T02:09:21.276Z,67.49
2023-02-23T02:13:29.770Z,67.39
2023-02-23T02:17:41.206Z,67.45
2023-02-23T02:22:26.164Z,66.66
2023-02-23T02:26:38.960Z,67.01
2023-02-23T02:30:49.240Z,65.03
2023-02-23T02:35:38.674Z,66.17
2023-02-23T02:39:54.558Z,67.74
2023-02-23T02:44:03.841Z,68.02
2023-02-23T02:48:17.077Z,68.14
2023-02-23T02:52:27.277Z,69.08
2023-02-23T02:56:34.099Z,70.09
2023-02-23T03:00:37.349Z,69.64
2023-02-23T03:04:59.959Z,69.10
2023-02-23T03:09:30.619Z,68.87
2023-02-23T03:14:04.449Z,68.59
2023-02-23T03:18:38.424Z,68.48
2023-02-23T03:23:06.515Z,68.56
2023-02-23T03:27:34.166Z,68.57
2023-02-23T03:32:03.243Z,68.41
2023-02-23T03:36:29.847Z,68.95
2023-02-23T03:40:54.664Z,68.55
2023-02-23T03:45:16.605Z,68.30
2023-02-23T03:49:41.178Z,68.81
2023-02-23T03:54:07.847Z,68.92
2023-02-23T03:58:34.872Z,70.47
2023-02-23T04:02:58.645Z,71.32
2023-02-23T04:07:25.964Z,70.48
2023-02-23T04:11:50.766Z,69.97
2023-02-23T04:15:55.764Z,70.42
2023-02-23T04:19:59.592Z,70.30
2023-02-23T04:24:03.952Z,69.98
2023-02-23T04:28:07.168Z,69.65
2023-02-23T04:32:15.906Z,70.32
2023-02-23T04:36:19.147Z,70.66
2023-02-23T04:40:24.430Z,70.46
2023-02-23T04:44:27.643Z,69.89
2023-02-23T04:48:30.716Z,69.97
2023-02-23T04:52:35.386Z,69.67
2023-02-23T04:56:40.504Z,69.95
2023-02-23T05:00:43.877Z,69.15
2023-02-23T05:04:47.121Z,68.96
2023-02-23T05:08:50.446Z,69.42
2023-02-23T05:12:55.192Z,69.83
2023-02-23T05:16:58.736Z,70.80
2023-02-23T05:21:06.522Z,70.81
2023-02-23T05:25:12.113Z,71.11
2023-02-23T05:29:16.724Z,70.84
2023-02-23T05:33:20.284Z,70.79
2023-02-23T05:37:23.400Z,70.99
2023-02-23T05:41:26.662Z,71.89
2023-02-23T05:45:31.252Z,71.51
2023-02-23T05:49:34.453Z,70.93
2023-02-23T05:53:37.457Z,70.63
2023-02-23T05:57:41.711Z,71.08
2023-02-23T06:01:46.286Z,70.73
2023-02-23T06:05:52.549Z,70.67
2023-02-23T06:09:55.546Z,70.76
2023-02-23T06:14:00.834Z,70.79
2023-02-23T06:18:05.722Z,70.73
2023-02-23T06:22:09.020Z,70.98
2023-02-23T06:26:12.056Z,70.97
2023-02-23T06:30:16.202Z,70.85
2023-02-23T06:34:21.298Z,71.15
2023-02-23T06:38:24.387Z,71.51
2023-02-23T06:42:28.152Z,71.26
2023-02-23T06:46:31.120Z,71.11
2023-02-23T06:50:35.681Z,71.18
2023-02-23T06:54:40.345Z,71.10
2023-02-23T06:58:43.769Z,71.18
2023-02-23T07:02:46.914Z,70.49
2023-02-23T07:06:52.592Z,70.64
2023-02-23T07:10:56.984Z,70.10
2023-02-23T07:15:00.091Z,70.57
2023-02-23T07:19:03.937Z,69.79
2023-02-23T07:23:08.653Z,69.89
2023-02-23T07:27:11.936Z,70.49
2023-02-23T07:31:15.196Z,69.93
2023-02-23T07:35:18.361Z,70.06
2023-02-23T07:39:22.986Z,69.11
2023-02-23T07:43:26.123Z,68.66
2023-02-23T07:47:31.235Z,68.04
2023-02-23T07:51:34.673Z,67.13
2023-02-23T07:55:40.694Z,66.76
2023-02-23T07:59:55.766Z,66.77
2023-02-23T08:03:59.393Z,66.80
2023-02-23T08:08:02.891Z,66.91
2023-02-23T08:12:08.108Z,66.10
2023-02-23T08:16:13.191Z,64.78
2023-02-23T08:20:16.502Z,64.53
2023-02-23T08:24:19.886Z,62.94
2023-02-23T08:28:25.240Z,61.46
2023-02-23T08:32:30.122Z,59.90
2023-02-23T08:36:33.212Z,58.61
2023-02-23T08:40:36.383Z,58.54
2023-02-23T08:44:40.659Z,57.55
2023-02-23T08:48:43.900Z,56.20
2023-02-23T08:52:47.048Z,55.43
2023-02-23T08:56:51.219Z,55.46
2023-02-23T09:00:56.153Z,55.10
2023-02-23T09:05:00.059Z,52.97
2023-02-23T09:09:03.426Z,53.84
2023-02-23T09:13:07.080Z,53.91
2023-02-23T09:17:12.036Z,54.23
2023-02-23T09:21:25.594Z,54.26
2023-02-23T09:25:29.527Z,53.37
2023-02-23T09:29:32.767Z,53.11
2023-02-23T09:33:37.750Z,53.14
2023-02-23T09:37:40.803Z,52.35
2023-02-23T09:42:08.913Z,54.69
2023-02-23T09:46:21.477Z,52.10
2023-02-23T09:50:30.476Z,50.60
2023-02-23T09:54:35.789Z,51.85
2023-02-23T09:58:39.752Z,51.17
2023-02-23T10:03:11.080Z,53.01
2023-02-23T10:07:22.341Z,50.73
2023-02-23T10:11:31.042Z,49.57
2023-02-23T10:15:42.119Z,50.79
2023-02-23T10:19:52.155Z,48.90
2023-02-23T10:24:02.533Z,49.99
2023-02-23T10:28:05.991Z,48.63
2023-02-23T10:32:20.744Z,48.31
2023-02-23T10:36:35.881Z,47.15
2023-02-23T10:40:40.665Z,48.04
2023-02-23T10:44:46.181Z,46.75
2023-02-23T10:48:52.144Z,46.48
2023-02-23T10:53:00.024Z,47.12
2023-02-23T10:57:06.804Z,47.34
2023-02-23T11:01:11.574Z,47.58
2023-02-23T11:05:32.083Z,48.89
2023-02-23T11:09:51.061Z,48.11
2023-02-23T11:13:56.426Z,48.75
2023-02-23T11:18:01.475Z,47.28
2023-02-23T11:22:06.979Z,47.45
2023-02-23T11:26:26.013Z,49.49
2023-02-23T11:30:38.352Z,48.05
2023-02-23T11:34:43.963Z,46.82
2023-02-23T11:38:47.978Z,47.20
2023-02-23T11:42:56.847Z,47.91
2023-02-23T11:47:01.707Z,48.98
2023-02-23T11:51:05.580Z,48.08
2023-02-23T11:55:13.886Z,48.73
2023-02-23T11:59:20.824Z,48.01
2023-02-23T12:03:27.489Z,49.22
2023-02-23T12:07:39.186Z,49.79
2023-02-23T12:11:48.769Z,48.41
2023-02-23T12:15:58.834Z,48.25
2023-02-23T12:20:11.766Z,47.91
2023-02-23T12:24:21.071Z,48.96
2023-02-23T12:28:33.319Z,48.35
2023-02-23T12:32:48.030Z,47.92
2023-02-23T12:36:59.728Z,48.53
2023-02-23T12:41:07.827Z,48.36
2023-02-23T12:45:20.706Z,48.03
2023-02-23T12:49:29.151Z,50.34
2023-02-23T12:53:40.746Z,48.21
2023-02-23T12:57:50.042Z,48.15
2023-02-23T13:01:59.238Z,48.83
2023-02-23T13:06:09.211Z,48.15
2023-02-23T13:10:27.456Z,49.09
2023-02-23T13:14:43.594Z,49.15
2023-02-23T13:18:51.416Z,48.10
2023-02-23T13:23:02.087Z,49.43
2023-02-23T13:27:17.588Z,48.86
2023-02-23T13:31:26.223Z,49.27
2023-02-23T13:35:35.869Z,48.21
2023-02-23T13:40:00.644Z,49.21
2023-02-23T13:44:17.102Z,49.84
2023-02-23T13:48:54.425Z,50.14
2023-02-23T13:53:05.081Z,49.89
2023-02-23T13:57:17.144Z,50.85
2023-02-23T14:01:23.886Z,50.51
2023-02-23T14:05:30.820Z,49.70
2023-02-23T14:14:52.041Z,49.67
2023-02-23T14:19:08.259Z,50.06
2023-02-23T14:23:36.926Z,50.43
2023-02-23T14:27:45.404Z,50.75
2023-02-23T14:32:02.394Z,50.67
2023-02-23T14:36:35.387Z,51.20
2023-02-23T14:40:44.556Z,50.93
2023-02-23T14:45:01.702Z,51.86
2023-02-23T14:49:15.880Z,51.72
2023-02-23T14:53:26.256Z,52.75
2023-02-23T14:57:34.875Z,52.37
2023-02-23T15:05:52.144Z,52.95
2023-02-23T15:10:00.291Z,52.73
2023-02-23T15:14:06.353Z,53.53
2023-02-23T15:18:22.766Z,53.40
2023-02-23T15:22:29.541Z,53.26
2023-02-23T15:26:36.401Z,53.88
2023-02-23T15:30:46.807Z,54.15
2023-02-23T15:34:50.480Z,54.54
2023-02-23T15:38:56.628Z,54.78
2023-02-23T15:43:01.738Z,55.41
2023-02-23T15:47:08.215Z,55.39
2023-02-23T15:51:23.980Z,55.34
2023-02-23T15:55:30.079Z,57.32
2023-02-23T15:59:37.507Z,57.41
2023-02-23T16:04:00.054Z,57.71
2023-02-23T16:08:06.714Z,57.94
2023-02-23T16:12:14.841Z,58.43
2023-02-23T16:16:25.620Z,58.22
2023-02-23T16:20:35.856Z,58.54
2023-02-23T16:24:39.888Z,58.74
2023-02-23T16:28:44.972Z,58.26
2023-02-23T16:32:51.200Z,58.89
2023-02-23T16:36:59.157Z,58.87
2023-02-23T16:41:04.092Z,59.46
2023-02-23T16:45:08.501Z,59.46
2023-02-23T16:49:13.711Z,59.68
2023-02-23T16:53:17.330Z,60.08
2023-02-23T16:57:25.101Z,59.80
2023-02-23T17:01:28.423Z,60.41
2023-02-23T17:05:33.617Z,60.15
2023-02-23T17:09:37.125Z,60.31
2023-02-23T17:13:40.101Z,60.26
2023-02-23T17:17:43.673Z,60.93
2023-02-23T17:21:48.855Z,61.02
2023-02-23T17:25:52.750Z,61.10
2023-02-23T17:30:00.849Z,60.73
2023-02-23T17:34:04.133Z,61.64
2023-02-23T17:38:09.457Z,62.12
2023-02-23T17:42:13.031Z,62.48
2023-02-23T17:46:16.064Z,63.35
2023-02-23T17:50:22.194Z,63.02
2023-02-23T17:54:27.431Z,63.25
2023-02-23T17:58:30.699Z,63.38
2023-02-23T18:02:34.565Z,63.68
2023-02-23T18:06:37.466Z,63.25
2023-02-23T18:10:42.348Z,63.41
2023-02-23T18:14:45.649Z,63.51
2023-02-23T18:18:50.485Z,63.92
2023-02-23T18:22:53.389Z,64.39
2023-02-23T18:27:00.889Z,64.67
2023-02-23T18:31:04.327Z,64.78
2023-02-23T18:35:07.906Z,64.88
2023-02-23T18:39:12.785Z,64.61
2023-02-23T18:43:17.049Z,64.82
2023-02-23T18:47:20.771Z,65.17
2023-02-23T18:51:24.179Z,65.07
2023-02-23T18:55:27.318Z,64.83
2023-02-23T18:59:31.915Z,64.96
2023-02-23T19:03:35.139Z,64.97
2023-02-23T19:07:38.188Z,65.27
2023-02-23T19:11:42.754Z,65.00
2023-02-23T19:15:48.549Z,65.15
2023-02-23T19:19:52.171Z,65.32
2023-02-23T19:23:58.065Z,65.28
2023-02-23T19:28:01.114Z,65.48
2023-02-23T19:32:06.393Z,65.32
2023-02-23T19:36:12.591Z,66.18
2023-02-23T19:40:19.937Z,66.19
2023-02-23T19:44:24.206Z,66.29
2023-02-23T19:48:30.642Z,66.35
2023-02-23T19:52:35.360Z,66.74
2023-02-23T19:56:39.469Z,66.59
2023-02-23T20:00:42.389Z,66.42
2023-02-23T20:04:49.702Z,66.34
2023-02-23T20:08:55.122Z,66.67
2023-02-23T20:12:58.433Z,66.63
2023-02-23T20:17:01.731Z,66.49
2023-02-23T20:21:12.484Z,66.30
2023-02-23T20:25:16.523Z,67.06
2023-02-23T20:29:20.364Z,66.85
2023-02-23T20:33:23.410Z,67.25
2023-02-23T20:37:28.392Z,67.05
2023-02-23T20:41:32.143Z,67.36
2023-02-23T20:45:35.608Z,67.85
2023-02-23T20:49:41.352Z,67.81
2023-02-23T20:53:47.578Z,67.27
2023-02-23T20:57:52.141Z,67.25
2023-02-23T21:01:56.014Z,68.08
2023-02-23T21:05:59.225Z,67.25
2023-02-23T21:10:04.314Z,67.43
2023-02-23T21:14:08.862Z,67.24
2023-02-23T21:18:12.848Z,67.41
2023-02-23T21:22:17.298Z,67.31
2023-02-23T21:26:23.910Z,67.15
2023-02-23T21:30:29.884Z,66.85
2023-02-23T21:34:32.829Z,66.74
2023-02-23T21:38:36.392Z,66.69
2023-02-23T21:42:44.751Z,66.30
2023-02-23T21:46:47.856Z,66.30
2023-02-23T21:50:51.184Z,66.66
2023-02-23T21:54:54.116Z,66.63
2023-02-23T21:58:59.259Z,66.63
2023-02-23T22:03:03.279Z,66.36
2023-02-23T22:07:07.046Z,66.69
2023-02-23T22:11:11.994Z,66.70
2023-02-23T22:15:19.338Z,66.64
2023-02-23T22:19:22.503Z,66.31
2023-02-23T22:23:26.080Z,66.75
2023-02-23T22:27:29.180Z,66.65
2023-02-23T22:31:34.266Z,66.68
2023-02-23T22:35:40.978Z,66.67
2023-02-23T22:39:44.588Z,66.68
2023-02-23T22:43:49.423Z,67.16
2023-02-23T22:47:55.542Z,67.24
2023-02-23T22:51:58.483Z,67.25
2023-02-23T22:56:01.554Z,67.20
2023-02-23T23:00:12.823Z,67.26
2023-02-23T23:04:17.659Z,66.92
2023-02-23T23:08:20.644Z,67.11
2023-02-23T23:12:24.245Z,67.04
2023-02-23T23:16:32.210Z,66.94
2023-02-23T23:20:36.774Z,66.88
2023-02-23T23:24:46.592Z,66.74
2023-02-23T23:28:53.344Z,66.80
2023-02-23T23:32:56.469Z,66.64
2023-02-23T23:37:03.187Z,66.70
2023-02-23T23:41:14.353Z,66.52
2023-02-23T23:45:24.285Z,66.46
2023-02-23T23:49:28.316Z,66.47
2023-02-23T23:53:35.688Z,66.33
2023-02-23T23:57:39.411Z,66.34
